createdAt,value
2022-10-19T00:01:15.387Z,29.05
2022-10-19T00:03:44.347Z,22.55
2022-10-19T00:06:25.903Z,23.63
2022-10-19T00:09:06.790Z,19.55
2022-10-19T00:11:37.382Z,25.40
2022-10-19T00:16:36.348Z,23.70
2022-10-19T00:19:12.229Z,22.30
2022-10-19T00:21:40.127Z,20.63
2022-10-19T00:24:08.607Z,24.20
2022-10-19T00:26:36.393Z,21.65
2022-10-19T00:29:04.897Z,24.88
2022-10-19T00:31:32.560Z,27.00
2022-10-19T00:34:00.768Z,29.48
2022-10-19T00:36:37.659Z,24.35
2022-10-19T00:39:08.242Z,24.45
2022-10-19T00:44:15.970Z,26.23
2022-10-19T00:46:50.676Z,27.00
2022-10-19T00:49:33.029Z,27.48
2022-10-19T00:52:17.211Z,30.60
2022-10-19T00:54:47.165Z,28.45
2022-10-19T00:57:15.305Z,30.02
2022-10-19T00:59:45.740Z,27.98
2022-10-19T01:02:14.051Z,32.38
2022-10-19T01:04:49.100Z,37.22
2022-10-19T01:07:16.852Z,33.58
2022-10-19T01:09:44.151Z,34.35
2022-10-19T01:12:51.299Z,35.83
2022-10-19T01:15:24.280Z,37.38
2022-10-19T01:18:19.623Z,36.05
2022-10-19T01:21:16.986Z,34.67
2022-10-19T01:24:05.600Z,35.67
2022-10-19T01:27:19.381Z,36.95
2022-10-19T01:30:03.397Z,34.17
2022-10-19T01:32:59.436Z,31.48
2022-10-19T01:36:09.960Z,32.63
2022-10-19T01:39:24.887Z,38.72
2022-10-19T01:42:06.313Z,38.42
2022-10-19T01:44:50.780Z,37.30
2022-10-19T01:47:31.375Z,35.13
2022-10-19T01:50:22.083Z,32.97
2022-10-19T01:52:51.709Z,38.70
2022-10-19T01:55:20.173Z,34.72
2022-10-19T01:57:54.801Z,34.65
2022-10-19T02:00:23.834Z,34.55
2022-10-19T02:02:54.603Z,34.28
2022-10-19T02:05:27.055Z,34.35
2022-10-19T02:08:00.804Z,30.25
2022-10-19T02:10:31.257Z,32.70
2022-10-19T02:12:59.518Z,32.72
2022-10-19T02:15:29.556Z,29.52
2022-10-19T02:17:59.853Z,29.13
2022-10-19T02:20:28.593Z,29.13
2022-10-19T02:22:56.532Z,27.10
2022-10-19T02:25:25.203Z,30.15
2022-10-19T02:27:53.177Z,29.98
2022-10-19T02:30:22.379Z,28.40
2022-10-19T02:32:51.056Z,29.38
2022-10-19T02:35:18.752Z,29.10
2022-10-19T02:37:46.228Z,28.67
2022-10-19T02:40:14.159Z,29.35
2022-10-19T02:43:04.505Z,28.08
2022-10-19T02:45:38.152Z,24.60
2022-10-19T02:48:11.743Z,31.13
2022-10-19T02:50:43.301Z,31.33
2022-10-19T02:53:10.653Z,30.75
2022-10-19T02:55:38.301Z,25.67
2022-10-19T02:58:05.536Z,34.05
2022-10-19T03:00:32.800Z,27.85
2022-10-19T03:03:00.544Z,32.40
2022-10-19T03:05:27.774Z,26.02
2022-10-19T03:07:54.989Z,27.88
2022-10-19T03:10:22.173Z,27.25
2022-10-19T03:12:49.438Z,24.02
2022-10-19T03:15:18.489Z,25.73
2022-10-19T03:17:45.868Z,25.17
2022-10-19T03:20:16.039Z,26.13
2022-10-19T03:22:43.256Z,22.45
2022-10-19T03:25:10.629Z,24.05
2022-10-19T03:27:37.741Z,24.35
2022-10-19T03:30:05.355Z,31.73
2022-10-19T03:32:32.622Z,27.15
2022-10-19T03:34:59.895Z,24.90
2022-10-19T03:37:27.206Z,26.23
2022-10-19T03:39:54.410Z,28.48
2022-10-19T03:42:21.582Z,24.23
2022-10-19T03:44:48.809Z,24.02
2022-10-19T03:47:16.046Z,23.35
2022-10-19T03:49:43.715Z,25.60
2022-10-19T03:52:11.132Z,22.88
2022-10-19T03:54:38.629Z,25.90
2022-10-19T03:57:05.753Z,22.98
2022-10-19T03:59:32.905Z,23.38
2022-10-19T04:02:00.136Z,22.92
2022-10-19T04:04:27.727Z,20.75
2022-10-19T04:06:54.962Z,25.77
2022-10-19T04:09:23.861Z,17.42
2022-10-19T04:11:51.591Z,19.98
2022-10-19T04:14:32.526Z,16.58
2022-10-19T04:17:03.895Z,21.35
2022-10-19T04:19:32.652Z,18.85
2022-10-19T04:21:59.891Z,20.30
2022-10-19T04:24:27.356Z,20.52
2022-10-19T04:26:56.391Z,18.27
2022-10-19T04:29:29.554Z,19.05
2022-10-19T04:31:57.790Z,19.45
2022-10-19T04:34:25.290Z,20.23
2022-10-19T04:36:53.937Z,22.73
2022-10-19T04:39:21.218Z,22.67
2022-10-19T04:41:48.348Z,20.80
2022-10-19T04:44:15.813Z,18.70
2022-10-19T04:46:43.041Z,18.35
2022-10-19T04:49:10.423Z,21.58
2022-10-19T04:51:37.731Z,20.50
2022-10-19T04:54:06.129Z,19.23
2022-10-19T04:56:33.543Z,18.92
2022-10-19T04:59:01.570Z,19.17
2022-10-19T05:01:31.091Z,22.83
2022-10-19T05:04:02.092Z,34.37
2022-10-19T05:06:31.513Z,17.90
2022-10-19T05:08:59.880Z,19.98
2022-10-19T05:11:27.577Z,17.65
2022-10-19T05:13:56.708Z,21.58
2022-10-19T05:16:24.533Z,23.52
2022-10-19T05:18:59.007Z,23.08
2022-10-19T05:21:28.962Z,24.00
2022-10-19T05:23:58.039Z,19.95
2022-10-19T05:26:27.445Z,22.75
2022-10-19T05:28:57.964Z,25.40
2022-10-19T05:31:31.571Z,24.60
2022-10-19T05:34:00.134Z,22.00
2022-10-19T05:36:34.672Z,22.90
2022-10-19T05:39:06.756Z,22.13
2022-10-19T05:41:34.917Z,24.63
2022-10-19T05:44:04.587Z,23.00
2022-10-19T05:46:33.751Z,23.97
2022-10-19T05:49:01.278Z,20.00
2022-10-19T05:51:29.109Z,23.33
2022-10-19T05:53:57.524Z,23.20
2022-10-19T05:56:28.214Z,19.40
2022-10-19T05:59:05.888Z,22.42
2022-10-19T06:01:34.181Z,21.50
2022-10-19T06:04:02.929Z,19.88
2022-10-19T06:06:31.824Z,18.73
2022-10-19T06:09:00.348Z,22.08
2022-10-19T06:11:31.183Z,21.00
2022-10-19T06:14:00.926Z,17.70
2022-10-19T06:16:29.841Z,17.47
2022-10-19T06:18:58.216Z,18.92
2022-10-19T06:21:29.888Z,20.73
2022-10-19T06:24:04.151Z,18.52
2022-10-19T06:26:33.358Z,22.38
2022-10-19T06:29:01.812Z,17.08
2022-10-19T06:31:32.209Z,15.98
2022-10-19T06:33:59.526Z,17.30
2022-10-19T06:36:30.674Z,19.17
2022-10-19T06:38:59.847Z,20.98
2022-10-19T06:41:28.095Z,16.75
2022-10-19T06:43:56.510Z,20.65
2022-10-19T06:46:26.444Z,23.73
2022-10-19T06:49:00.361Z,17.00
2022-10-19T06:51:30.267Z,21.00
2022-10-19T06:53:57.803Z,21.20
2022-10-19T06:56:26.757Z,18.80
2022-10-19T06:58:54.843Z,19.52
2022-10-19T07:01:23.049Z,21.80
2022-10-19T07:03:54.268Z,14.98
2022-10-19T07:06:22.512Z,19.52
2022-10-19T07:08:50.181Z,18.17
2022-10-19T07:11:20.538Z,18.05
2022-10-19T07:13:48.087Z,18.85
2022-10-19T07:16:20.591Z,17.75
2022-10-19T07:18:51.307Z,19.85
2022-10-19T07:21:19.484Z,18.27
2022-10-19T07:23:47.642Z,18.08
2022-10-19T07:26:23.905Z,18.85
2022-10-19T07:28:52.015Z,18.42
2022-10-19T07:31:22.092Z,21.25
2022-10-19T07:33:59.115Z,21.02
2022-10-19T07:36:28.125Z,17.50
2022-10-19T07:38:56.090Z,21.52
2022-10-19T07:41:25.920Z,15.88
2022-10-19T07:43:54.539Z,15.50
2022-10-19T07:46:25.995Z,13.45
2022-10-19T07:48:53.993Z,19.75
2022-10-19T07:51:22.243Z,14.75
2022-10-19T07:53:49.975Z,16.52
2022-10-19T07:56:21.386Z,14.73
2022-10-19T07:58:51.136Z,16.83
2022-10-19T08:01:31.504Z,17.38
2022-10-19T08:06:47.589Z,18.42
2022-10-19T08:09:33.436Z,19.17
2022-10-19T08:12:02.766Z,18.27
2022-10-19T08:14:30.100Z,18.83
2022-10-19T08:16:57.720Z,14.50
2022-10-19T08:19:24.936Z,16.45
2022-10-19T08:21:52.282Z,14.77
2022-10-19T08:24:20.849Z,16.90
2022-10-19T08:26:51.217Z,14.65
2022-10-19T08:29:21.436Z,15.35
2022-10-19T08:31:49.741Z,14.52
2022-10-19T08:34:17.104Z,13.10
2022-10-19T08:36:44.638Z,15.63
2022-10-19T08:39:13.198Z,11.82
2022-10-19T08:41:40.367Z,12.45
2022-10-19T08:44:27.685Z,11.10
2022-10-19T08:47:26.651Z,10.48
2022-10-19T08:49:55.160Z,9.50
2022-10-19T08:52:34.101Z,8.68
2022-10-19T08:55:19.617Z,11.38
2022-10-19T08:58:41.394Z,11.05
2022-10-19T09:01:37.643Z,9.75
2022-10-19T09:04:35.833Z,6.57
2022-10-19T09:07:23.618Z,8.70
2022-10-19T09:10:11.144Z,6.50
2022-10-19T09:12:58.910Z,9.65
2022-10-19T09:15:47.064Z,7.82
2022-10-19T09:18:29.787Z,7.47
2022-10-19T09:21:16.242Z,8.77
2022-10-19T09:24:16.216Z,5.63
2022-10-19T09:26:58.628Z,10.90
2022-10-19T09:29:42.251Z,4.55
2022-10-19T09:32:23.741Z,12.57
2022-10-19T09:35:06.492Z,5.47
2022-10-19T09:37:43.195Z,8.38
2022-10-19T09:40:20.223Z,6.72
2022-10-19T09:42:51.348Z,3.92
2022-10-19T09:45:23.911Z,8.00
2022-10-19T09:47:51.206Z,6.75
2022-10-19T09:50:27.454Z,7.82
2022-10-19T09:53:05.288Z,8.68
2022-10-19T09:55:47.116Z,8.05
2022-10-19T09:58:14.251Z,6.15
2022-10-19T10:00:46.427Z,5.18
2022-10-19T10:03:36.610Z,4.60
2022-10-19T10:06:09.095Z,7.32
2022-10-19T10:08:40.185Z,3.53
2022-10-19T10:11:16.265Z,3.65
2022-10-19T10:13:49.636Z,8.32
2022-10-19T10:16:20.603Z,5.18
2022-10-19T10:19:15.799Z,5.20
2022-10-19T10:21:55.800Z,6.72
2022-10-19T10:24:26.645Z,4.28
2022-10-19T10:26:58.504Z,8.45
2022-10-19T10:29:39.105Z,8.45
2022-10-19T10:32:19.754Z,5.03
2022-10-19T10:35:04.005Z,8.77
2022-10-19T10:37:37.260Z,4.75
2022-10-19T10:40:06.602Z,4.75
2022-10-19T10:42:42.787Z,5.13
2022-10-19T10:45:34.061Z,8.32
2022-10-19T10:48:28.417Z,6.60
2022-10-19T10:50:57.823Z,7.40
2022-10-19T10:53:44.059Z,4.70
2022-10-19T10:56:27.492Z,7.47
2022-10-19T10:59:05.785Z,4.45
2022-10-19T11:01:44.885Z,4.00
2022-10-19T11:04:20.749Z,4.10
2022-10-19T11:07:05.258Z,6.65
2022-10-19T11:09:42.681Z,3.72
2022-10-19T11:12:19.246Z,3.65
2022-10-19T11:14:51.384Z,2.40
2022-10-19T11:17:33.060Z,5.43
2022-10-19T11:20:01.010Z,4.63
2022-10-19T11:22:44.385Z,5.05
2022-10-19T11:25:59.937Z,4.72
2022-10-19T11:29:17.988Z,2.67
2022-10-19T11:31:54.027Z,3.60
2022-10-19T11:34:48.812Z,5.07
2022-10-19T11:38:19.439Z,6.07
2022-10-19T11:41:43.790Z,9.27
2022-10-19T11:44:38.628Z,2.90
2022-10-19T11:47:36.613Z,2.25
2022-10-19T11:50:16.873Z,2.85
2022-10-19T11:53:40.120Z,1.42
2022-10-19T11:57:11.352Z,2.17
2022-10-19T12:00:03.672Z,1.35
2022-10-19T12:03:03.399Z,2.38
2022-10-19T12:06:03.477Z,3.03
2022-10-19T12:08:51.156Z,4.50
2022-10-19T12:12:07.408Z,4.70
2022-10-19T12:14:42.404Z,6.65
2022-10-19T12:17:15.892Z,2.40
2022-10-19T12:19:49.112Z,1.85
2022-10-19T12:22:26.935Z,5.53
2022-10-19T12:24:58.495Z,3.30
2022-10-19T12:30:17.010Z,4.80
2022-10-19T12:33:02.016Z,2.90
2022-10-19T12:36:13.762Z,3.60
2022-10-19T12:38:49.449Z,3.35
2022-10-19T12:41:56.510Z,3.72
2022-10-19T12:45:05.698Z,4.20
2022-10-19T12:47:33.612Z,2.45
2022-10-19T12:50:01.272Z,4.55
2022-10-19T12:52:49.017Z,2.95
2022-10-19T12:55:16.067Z,1.30
2022-10-19T12:57:56.115Z,2.13
2022-10-19T13:00:30.379Z,1.10
2022-10-19T13:03:05.759Z,8.60
2022-10-19T13:05:35.231Z,2.92
2022-10-19T13:08:06.964Z,2.35
2022-10-19T13:10:36.782Z,1.95
2022-10-19T13:13:04.744Z,5.68
2022-10-19T13:15:37.697Z,1.05
2022-10-19T13:18:14.439Z,3.83
2022-10-19T13:20:52.967Z,3.17
2022-10-19T13:23:29.019Z,3.03
2022-10-19T13:26:33.573Z,1.15
2022-10-19T13:29:01.765Z,3.63
2022-10-19T13:31:33.095Z,3.47
2022-10-19T13:34:00.527Z,1.52
2022-10-19T13:36:27.927Z,2.95
2022-10-19T13:39:03.040Z,2.22
2022-10-19T13:41:39.356Z,2.40
2022-10-19T13:44:15.341Z,7.15
2022-10-19T13:46:45.092Z,1.05
2022-10-19T13:49:56.260Z,2.40
2022-10-19T13:53:03.247Z,1.67
2022-10-19T13:55:51.713Z,6.70
2022-10-19T13:58:42.904Z,1.88
2022-10-19T14:01:48.199Z,4.10
2022-10-19T14:04:51.375Z,3.47
2022-10-19T14:07:32.427Z,0.38
2022-10-19T14:10:08.428Z,1.98
2022-10-19T14:12:39.729Z,2.03
2022-10-19T14:15:28.044Z,3.25
2022-10-19T14:17:56.778Z,1.80
2022-10-19T14:20:37.135Z,3.95
2022-10-19T14:23:40.278Z,1.83
2022-10-19T14:26:24.169Z,2.25
2022-10-19T14:28:57.468Z,1.85
2022-10-19T14:31:33.940Z,1.10
2022-10-19T14:34:07.665Z,2.85
2022-10-19T14:36:44.243Z,2.17
2022-10-19T14:40:08.714Z,1.80
2022-10-19T14:42:45.709Z,2.17
2022-10-19T14:45:27.419Z,2.10
2022-10-19T14:48:18.324Z,1.95
2022-10-19T14:50:55.532Z,3.65
2022-10-19T14:53:39.926Z,4.63
2022-10-19T14:56:23.405Z,4.88
2022-10-19T14:59:14.257Z,3.35
2022-10-19T15:01:48.612Z,3.28
2022-10-19T15:04:29.125Z,3.40
2022-10-19T15:06:57.224Z,10.13
2022-10-19T15:09:37.555Z,3.88
2022-10-19T15:12:19.512Z,1.70
2022-10-19T15:14:48.775Z,4.65
2022-10-19T15:17:31.664Z,2.25
2022-10-19T15:20:01.588Z,1.75
2022-10-19T15:22:32.378Z,4.18
2022-10-19T15:27:33.760Z,2.88
2022-10-19T15:30:28.137Z,1.23
2022-10-19T15:33:14.248Z,1.63
2022-10-19T15:35:44.955Z,3.65
2022-10-19T15:38:25.900Z,1.83
2022-10-19T15:41:02.511Z,6.32
2022-10-19T15:43:35.919Z,4.00
2022-10-19T15:46:26.394Z,3.53
2022-10-19T15:48:56.427Z,3.40
2022-10-19T15:51:23.948Z,11.27
2022-10-19T15:54:10.080Z,3.63
2022-10-19T15:56:40.349Z,5.50
2022-10-19T15:59:20.037Z,4.30
2022-10-19T16:01:53.681Z,3.70
2022-10-19T16:04:22.360Z,6.07
2022-10-19T16:06:49.649Z,2.65
2022-10-19T16:09:20.812Z,4.13
2022-10-19T16:11:48.811Z,3.42
2022-10-19T16:16:44.768Z,3.42
2022-10-19T16:19:12.433Z,2.58
2022-10-19T16:21:40.228Z,4.65
2022-10-19T16:24:07.945Z,3.47
2022-10-19T16:26:35.606Z,5.38
2022-10-19T16:29:03.349Z,2.53
2022-10-19T16:31:31.710Z,4.00
2022-10-19T16:33:59.007Z,2.83
2022-10-19T16:36:26.338Z,3.92
2022-10-19T16:38:53.825Z,3.60
2022-10-19T16:41:21.262Z,2.95
2022-10-19T16:43:53.616Z,4.28
2022-10-19T16:46:23.021Z,5.55
2022-10-19T16:48:50.777Z,7.38
2022-10-19T16:51:42.036Z,4.05
2022-10-19T16:54:11.750Z,5.35
2022-10-19T16:56:45.953Z,25.15
2022-10-19T16:59:16.775Z,4.35
2022-10-19T17:04:14.933Z,10.68
2022-10-19T17:06:42.625Z,9.07
2022-10-19T17:11:57.978Z,15.70
2022-10-19T17:14:25.376Z,12.20
2022-10-19T17:16:52.773Z,11.52
2022-10-19T17:19:20.087Z,16.42
2022-10-19T17:21:49.385Z,13.90
2022-10-19T17:24:22.048Z,10.05
2022-10-19T17:26:53.613Z,8.32
2022-10-19T17:29:22.677Z,8.20
2022-10-19T17:31:50.515Z,8.52
2022-10-19T17:34:18.482Z,4.88
2022-10-19T17:36:46.852Z,6.60
2022-10-19T17:39:18.299Z,6.65
2022-10-19T17:41:48.355Z,6.30
2022-10-19T17:44:17.107Z,7.20
2022-10-19T17:46:45.025Z,6.97
2022-10-19T17:49:13.545Z,9.65
2022-10-19T17:51:41.367Z,7.80
2022-10-19T17:54:13.450Z,6.35
2022-10-19T17:56:45.241Z,7.07
2022-10-19T17:59:14.228Z,21.35
2022-10-19T18:01:41.733Z,9.00
2022-10-19T18:04:09.094Z,7.63
2022-10-19T18:06:38.094Z,9.60
2022-10-19T18:09:09.315Z,6.38
2022-10-19T18:11:41.698Z,11.18
2022-10-19T18:14:12.584Z,14.88
2022-10-19T18:16:45.401Z,15.30
2022-10-19T18:19:15.976Z,11.77
2022-10-19T18:21:46.042Z,10.25
2022-10-19T18:24:19.522Z,10.30
2022-10-19T18:26:48.843Z,9.38
2022-10-19T18:29:21.055Z,8.73
2022-10-19T18:31:51.649Z,9.52
2022-10-19T18:36:50.148Z,11.55
2022-10-19T18:39:18.832Z,6.50
2022-10-19T18:41:46.419Z,8.63
2022-10-19T18:44:14.206Z,6.05
2022-10-19T18:46:41.742Z,6.28
2022-10-19T18:49:11.440Z,9.30
2022-10-19T18:51:39.546Z,10.37
2022-10-19T18:54:06.859Z,6.43
2022-10-19T18:56:36.623Z,6.60
2022-10-19T18:59:05.394Z,9.18
2022-10-19T19:01:33.358Z,8.43
2022-10-19T19:04:09.135Z,6.10
2022-10-19T19:06:38.092Z,7.40
2022-10-19T19:09:10.256Z,7.82
2022-10-19T19:11:41.202Z,6.85
2022-10-19T19:14:18.321Z,7.57
2022-10-19T19:16:46.148Z,9.02
2022-10-19T19:19:16.346Z,7.72
2022-10-19T19:21:45.286Z,7.18
2022-10-19T19:24:17.384Z,10.05
2022-10-19T19:26:53.457Z,11.13
2022-10-19T19:29:21.930Z,7.47
2022-10-19T19:31:49.661Z,8.73
2022-10-19T19:34:18.209Z,8.50
2022-10-19T19:36:49.116Z,7.90
2022-10-19T19:39:20.515Z,9.55
2022-10-19T19:41:49.482Z,9.05
2022-10-19T19:44:17.394Z,9.00
2022-10-19T19:46:44.849Z,8.10
2022-10-19T19:49:12.615Z,11.40
2022-10-19T19:51:40.217Z,10.68
2022-10-19T19:54:07.866Z,7.50
2022-10-19T19:56:37.267Z,8.98
2022-10-19T19:59:04.619Z,10.90
2022-10-19T20:01:32.999Z,15.02
2022-10-19T20:06:37.486Z,11.15
2022-10-19T20:09:06.748Z,11.05
2022-10-19T20:11:36.207Z,10.25
2022-10-19T20:14:07.082Z,9.52
2022-10-19T20:16:34.465Z,13.80
2022-10-19T20:19:08.719Z,9.48
2022-10-19T20:21:36.705Z,8.40
2022-10-19T20:24:04.606Z,9.10
2022-10-19T20:26:32.234Z,8.48
2022-10-19T20:29:02.122Z,11.60
2022-10-19T20:31:31.491Z,11.02
2022-10-19T20:33:58.936Z,10.50
2022-10-19T20:36:27.087Z,9.38
2022-10-19T20:38:58.388Z,9.32
2022-10-19T20:41:28.443Z,9.90
2022-10-19T20:43:56.402Z,13.02
2022-10-19T20:46:27.736Z,16.27
2022-10-19T20:48:59.880Z,14.55
2022-10-19T20:51:33.564Z,12.80
2022-10-19T20:54:03.600Z,13.82
2022-10-19T20:56:33.916Z,12.93
2022-10-19T20:59:08.052Z,13.30
2022-10-19T21:01:37.875Z,13.48
2022-10-19T21:04:08.338Z,12.53
2022-10-19T21:06:41.491Z,17.85
2022-10-19T21:09:10.270Z,12.77
2022-10-19T21:11:41.059Z,16.38
2022-10-19T21:17:04.361Z,14.93
2022-10-19T21:19:31.827Z,11.48
2022-10-19T21:22:02.545Z,12.48
2022-10-19T21:27:07.574Z,16.02
2022-10-19T21:29:36.161Z,15.95
2022-10-19T21:32:04.089Z,21.25
2022-10-19T21:34:32.151Z,23.20
2022-10-19T21:37:00.281Z,18.92
2022-10-19T21:39:27.718Z,16.70
2022-10-19T21:41:55.276Z,12.75
2022-10-19T21:44:23.249Z,19.48
2022-10-19T21:46:51.136Z,15.38
2022-10-19T21:49:18.750Z,20.25
2022-10-19T21:51:53.930Z,15.15
2022-10-19T21:54:25.068Z,19.10
2022-10-19T21:56:53.448Z,16.63
2022-10-19T21:59:20.972Z,16.95
2022-10-19T22:01:48.532Z,21.02
2022-10-19T22:04:18.269Z,18.35
2022-10-19T22:06:45.642Z,20.85
2022-10-19T22:09:19.869Z,24.08
2022-10-19T22:11:47.685Z,20.50
2022-10-19T22:14:16.604Z,23.05
2022-10-19T22:16:44.953Z,19.92
2022-10-19T22:19:13.089Z,17.48
2022-10-19T22:21:40.850Z,22.23
2022-10-19T22:24:13.632Z,21.90
2022-10-19T22:26:45.565Z,16.88
2022-10-19T22:29:13.251Z,16.95
2022-10-19T22:31:40.748Z,16.90
2022-10-19T22:34:12.182Z,15.88
2022-10-19T22:36:39.449Z,16.77
2022-10-19T22:39:07.749Z,18.88
2022-10-19T22:41:35.074Z,17.92
2022-10-19T22:44:02.518Z,19.73
2022-10-19T22:46:29.863Z,25.83
2022-10-19T22:48:57.146Z,24.80
2022-10-19T22:51:24.375Z,24.25
2022-10-19T22:53:51.611Z,18.95
2022-10-19T22:56:18.803Z,19.67
2022-10-19T22:58:46.098Z,22.58
2022-10-19T23:01:15.894Z,21.27
2022-10-19T23:03:43.606Z,20.53
2022-10-19T23:06:14.069Z,22.27
2022-10-19T23:08:42.327Z,21.40
2022-10-19T23:11:09.600Z,21.45
2022-10-19T23:13:37.281Z,24.63
2022-10-19T23:16:04.971Z,19.83
2022-10-19T23:18:37.006Z,21.40
2022-10-19T23:21:08.075Z,22.25
2022-10-19T23:23:37.075Z,24.98
2022-10-19T23:26:11.248Z,20.95
2022-10-19T23:28:40.583Z,21.30
2022-10-19T23:31:10.386Z,28.02
2022-10-19T23:33:37.873Z,27.27
2022-10-19T23:36:22.618Z,25.80
2022-10-19T23:38:51.473Z,24.80
2022-10-19T23:41:20.226Z,28.17
2022-10-19T23:43:48.461Z,29.10
2022-10-19T23:46:16.218Z,28.75
2022-10-19T23:48:43.844Z,27.75
2022-10-19T23:51:15.865Z,33.17
2022-10-19T23:53:46.163Z,24.20
2022-10-19T23:56:23.450Z,29.60
2022-10-19T23:58:52.099Z,30.05
